createdAt,value
2022-10-16T00:03:00.124Z,101803.81
2022-10-16T00:07:59.381Z,101810.19
2022-10-16T00:12:58.509Z,101820.03
2022-10-16T00:17:58.934Z,101827.19
2022-10-16T00:22:58.016Z,101834.31
2022-10-16T00:27:57.053Z,101830.88
2022-10-16T00:32:55.919Z,101834.84
2022-10-16T00:37:56.148Z,101831.53
2022-10-16T00:42:55.123Z,101838.78
2022-10-16T00:47:56.340Z,101839.44
2022-10-16T00:52:58.213Z,101839.63
2022-10-16T00:57:57.669Z,101837.09
2022-10-16T01:02:57.938Z,101843.19
2022-10-16T01:08:04.790Z,101840.63
2022-10-16T01:13:07.875Z,101839.78
2022-10-16T01:18:13.580Z,101836.63
2022-10-16T01:23:24.090Z,101829.63
2022-10-16T01:28:30.424Z,101833.19
2022-10-16T01:33:36.434Z,101840.13
2022-10-16T01:38:38.780Z,101840.66
2022-10-16T01:43:43.809Z,101841.47
2022-10-16T01:48:43.471Z,101851.03
2022-10-16T01:53:43.963Z,101854.59
2022-10-16T01:58:51.436Z,101856.56
2022-10-16T02:03:54.961Z,101860.38
2022-10-16T02:08:53.675Z,101869.84
2022-10-16T02:13:59.106Z,101865.63
2022-10-16T02:18:58.105Z,101872.13
2022-10-16T02:24:02.612Z,101868.81
2022-10-16T02:29:08.101Z,101886.53
2022-10-16T02:34:08.893Z,101889.16
2022-10-16T02:39:09.256Z,101877.00
2022-10-16T02:44:09.389Z,101884.75
2022-10-16T02:49:08.130Z,101890.88
2022-10-16T02:54:06.908Z,101890.88
2022-10-16T02:59:05.957Z,101893.56
2022-10-16T03:04:06.777Z,101898.09
2022-10-16T03:09:05.705Z,101905.22
2022-10-16T03:14:04.553Z,101904.22
2022-10-16T03:19:03.624Z,101907.19
2022-10-16T03:24:03.844Z,101903.75
2022-10-16T03:29:03.808Z,101913.38
2022-10-16T03:34:02.646Z,101916.00
2022-10-16T03:39:01.455Z,101915.22
2022-10-16T03:44:01.666Z,101923.34
2022-10-16T03:49:00.427Z,101919.06
2022-10-16T03:53:59.233Z,101925.25
2022-10-16T03:58:58.492Z,101913.94
2022-10-16T04:03:58.640Z,101922.75
2022-10-16T04:08:57.429Z,101920.31
2022-10-16T04:13:56.232Z,101932.31
2022-10-16T04:18:54.989Z,101929.94
2022-10-16T04:23:55.109Z,101938.97
2022-10-16T04:28:53.900Z,101929.53
2022-10-16T04:33:52.788Z,101931.31
2022-10-16T04:38:51.615Z,101930.88
2022-10-16T04:43:51.937Z,101944.94
2022-10-16T04:48:50.750Z,101957.09
2022-10-16T04:53:49.585Z,101963.16
2022-10-16T04:58:48.452Z,101970.16
2022-10-16T05:03:48.673Z,101977.09
2022-10-16T05:08:47.766Z,101976.06
2022-10-16T05:13:46.697Z,101985.84
2022-10-16T05:18:45.497Z,101994.19
2022-10-16T05:23:45.917Z,102005.94
2022-10-16T05:28:45.382Z,102026.41
2022-10-16T05:33:45.161Z,102033.66
2022-10-16T05:38:45.575Z,102038.88
2022-10-16T05:43:44.342Z,102036.06
2022-10-16T05:48:43.188Z,102050.84
2022-10-16T05:58:45.395Z,102051.75
2022-10-16T06:03:44.839Z,102051.78
2022-10-16T06:08:45.083Z,102063.00
2022-10-16T06:13:48.655Z,102068.84
2022-10-16T06:18:48.324Z,102073.97
2022-10-16T06:23:48.053Z,102086.03
2022-10-16T06:28:48.596Z,102087.50
2022-10-16T06:33:48.094Z,102101.03
2022-10-16T06:38:47.052Z,102096.84
2022-10-16T06:43:47.455Z,102090.97
2022-10-16T06:48:46.180Z,102097.63
2022-10-16T06:54:04.111Z,102102.38
2022-10-16T06:59:05.654Z,102100.44
2022-10-16T07:04:04.605Z,102099.97
2022-10-16T07:09:07.554Z,102109.84
2022-10-16T07:14:17.099Z,102112.16
2022-10-16T07:19:18.004Z,102103.69
2022-10-16T07:24:18.589Z,102116.38
2022-10-16T07:29:20.895Z,102118.44
2022-10-16T07:34:22.642Z,102118.94
2022-10-16T07:39:31.725Z,102108.88
2022-10-16T07:44:32.109Z,102109.16
2022-10-16T07:49:30.909Z,102108.53
2022-10-16T07:54:29.716Z,102111.22
2022-10-16T07:59:28.949Z,102116.50
2022-10-16T08:04:30.608Z,102115.03
2022-10-16T08:09:29.646Z,102116.69
2022-10-16T08:14:29.579Z,102121.78
2022-10-16T08:19:30.139Z,102125.44
2022-10-16T08:24:31.906Z,102133.72
2022-10-16T08:29:30.772Z,102130.69
2022-10-16T08:34:30.978Z,102124.88
2022-10-16T08:39:30.511Z,102126.56
2022-10-16T08:45:44.683Z,102123.16
2022-10-16T08:50:50.656Z,102127.78
2022-10-16T08:55:53.200Z,102130.41
2022-10-16T09:00:56.509Z,102124.84
2022-10-16T09:06:09.772Z,102121.47
2022-10-16T09:11:15.739Z,102116.63
2022-10-16T09:16:22.109Z,102118.69
2022-10-16T09:21:28.787Z,102113.94
2022-10-16T09:26:27.715Z,102107.16
2022-10-16T09:31:26.628Z,102107.72
2022-10-16T09:36:29.721Z,102108.22
2022-10-16T09:41:28.773Z,102097.28
2022-10-16T09:46:41.378Z,102093.84
2022-10-16T09:51:42.014Z,102082.84
2022-10-16T09:56:57.073Z,102069.16
2022-10-16T10:02:03.794Z,102055.38
2022-10-16T10:07:40.733Z,102050.06
2022-10-16T10:12:51.777Z,102055.97
2022-10-16T10:17:52.910Z,102056.50
2022-10-16T10:22:52.950Z,102055.91
2022-10-16T10:28:08.847Z,102052.09
2022-10-16T10:33:26.511Z,102051.25
2022-10-16T10:38:46.349Z,102049.78
2022-10-16T10:43:57.842Z,102047.75
2022-10-16T10:49:15.407Z,102041.81
2022-10-16T10:54:20.235Z,102031.31
2022-10-16T10:59:44.661Z,102026.34
2022-10-16T11:05:01.455Z,102029.69
2022-10-16T11:10:07.373Z,102028.13
2022-10-16T11:15:16.958Z,102029.06
2022-10-16T11:20:20.315Z,102030.53
2022-10-16T11:25:25.091Z,102018.13
2022-10-16T11:30:27.632Z,102022.66
2022-10-16T11:35:34.833Z,102019.50
2022-10-16T11:40:42.182Z,102014.91
2022-10-16T11:45:44.817Z,102011.81
2022-10-16T11:50:51.123Z,102011.13
2022-10-16T11:55:51.610Z,102008.41
2022-10-16T12:00:58.210Z,102017.09
2022-10-16T12:06:08.908Z,102005.13
2022-10-16T12:11:22.422Z,102003.94
2022-10-16T12:16:26.356Z,102018.50
2022-10-16T12:22:26.241Z,102021.09
2022-10-16T12:27:31.852Z,102020.75
2022-10-16T12:32:49.564Z,102017.84
2022-10-16T12:37:48.793Z,102018.88
2022-10-16T12:42:49.064Z,102012.28
2022-10-16T12:47:52.493Z,102018.91
2022-10-16T12:52:51.508Z,102011.63
2022-10-16T12:58:09.943Z,102017.03
2022-10-16T13:03:37.743Z,102028.03
2022-10-16T13:08:57.776Z,102019.84
2022-10-16T13:14:06.349Z,102019.31
2022-10-16T13:19:18.331Z,102026.50
2022-10-16T13:24:30.743Z,102029.31
2022-10-16T13:29:37.610Z,102028.09
2022-10-16T13:34:46.792Z,102023.41
2022-10-16T13:39:45.538Z,102024.81
2022-10-16T13:44:51.098Z,102019.97
2022-10-16T13:50:01.946Z,102024.16
2022-10-16T13:55:02.513Z,102046.00
2022-10-16T14:00:04.637Z,102049.72
2022-10-16T14:05:06.129Z,102042.50
2022-10-16T14:10:09.984Z,102035.09
2022-10-16T14:15:21.519Z,102051.53
2022-10-16T14:20:21.446Z,102054.38
2022-10-16T14:25:31.625Z,102065.66
2022-10-16T14:30:35.790Z,102060.69
2022-10-16T14:35:37.148Z,102050.78
2022-10-16T14:40:38.159Z,102056.53
2022-10-16T14:45:39.656Z,102070.63
2022-10-16T14:50:38.474Z,102066.00
2022-10-16T14:55:39.218Z,102075.81
2022-10-16T15:00:41.194Z,102073.50
2022-10-16T15:05:42.217Z,102076.59
2022-10-16T15:10:45.027Z,102084.34
2022-10-16T15:15:46.956Z,102086.41
2022-10-16T15:20:46.087Z,102092.38
2022-10-16T15:25:47.105Z,102095.31
2022-10-16T15:30:48.209Z,102104.91
2022-10-16T15:35:50.014Z,102116.84
2022-10-16T15:40:49.738Z,102124.88
2022-10-16T15:46:02.663Z,102129.41
2022-10-16T15:51:01.893Z,102125.75
2022-10-16T15:56:03.921Z,102135.13
2022-10-16T16:01:05.383Z,102149.00
2022-10-16T16:06:07.063Z,102141.59
2022-10-16T16:11:08.578Z,102155.34
2022-10-16T16:16:10.426Z,102156.41
2022-10-16T16:21:10.179Z,102163.47
2022-10-16T16:26:12.051Z,102170.34
2022-10-16T16:31:12.293Z,102166.19
2022-10-16T16:36:15.538Z,102179.47
2022-10-16T16:41:18.246Z,102181.75
2022-10-16T16:46:18.137Z,102181.56
2022-10-16T16:51:20.688Z,102183.56
2022-10-16T16:56:21.906Z,102198.34
2022-10-16T17:01:24.760Z,102203.66
2022-10-16T17:06:30.659Z,102218.88
2022-10-16T17:11:29.910Z,102219.94
2022-10-16T17:16:32.366Z,102224.56
2022-10-16T17:21:33.072Z,102227.81
2022-10-16T17:26:32.269Z,102217.41
2022-10-16T17:31:34.096Z,102223.31
2022-10-16T17:36:36.916Z,102233.13
2022-10-16T17:41:37.278Z,102227.00
2022-10-16T17:46:40.959Z,102237.59
2022-10-16T17:52:08.722Z,102233.41
2022-10-16T17:57:07.869Z,102242.88
2022-10-16T18:02:08.678Z,102238.94
2022-10-16T18:07:07.921Z,102241.31
2022-10-16T18:12:08.699Z,102243.81
2022-10-16T18:17:11.608Z,102247.09
2022-10-16T18:22:10.784Z,102254.56
2022-10-16T18:27:09.806Z,102256.88
2022-10-16T18:32:08.594Z,102260.25
2022-10-16T18:37:08.883Z,102268.66
2022-10-16T18:42:10.788Z,102277.03
2022-10-16T18:47:10.435Z,102281.97
2022-10-16T18:52:12.644Z,102284.28
2022-10-16T18:57:14.609Z,102287.66
2022-10-16T19:02:14.051Z,102296.13
2022-10-16T19:07:15.810Z,102300.75
2022-10-16T19:12:14.733Z,102299.56
2022-10-16T19:17:18.596Z,102308.75
2022-10-16T19:22:30.630Z,102301.00
2022-10-16T19:34:13.376Z,102319.19
2022-10-16T19:39:16.155Z,102332.59
2022-10-16T19:44:19.889Z,102342.59
2022-10-16T19:49:25.840Z,102351.78
2022-10-16T19:54:27.481Z,102354.53
2022-10-16T19:59:26.284Z,102362.31
2022-10-16T20:04:25.195Z,102364.34
2022-10-16T20:09:24.124Z,102360.00
2022-10-16T20:14:24.463Z,102369.94
2022-10-16T20:19:23.469Z,102371.53
2022-10-16T20:24:22.717Z,102371.78
2022-10-16T20:29:21.705Z,102371.84
2022-10-16T20:34:21.984Z,102376.34
2022-10-16T20:39:20.870Z,102377.63
2022-10-16T20:44:19.835Z,102375.06
2022-10-16T20:49:28.785Z,102376.09
2022-10-16T20:54:39.010Z,102390.00
2022-10-16T20:59:37.964Z,102389.50
2022-10-16T21:04:36.872Z,102387.19
2022-10-16T21:09:35.817Z,102390.88
2022-10-16T21:14:42.307Z,102400.09
2022-10-16T21:19:45.427Z,102402.78
2022-10-16T21:24:44.331Z,102413.22
2022-10-16T21:34:43.267Z,102416.69
2022-10-16T21:39:42.274Z,102424.84
2022-10-16T21:44:40.977Z,102422.53
2022-10-16T21:49:41.190Z,102426.31
2022-10-16T21:54:40.372Z,102429.25
2022-10-16T21:59:39.162Z,102427.50
2022-10-16T22:04:38.011Z,102433.03
2022-10-16T22:09:38.245Z,102441.00
2022-10-16T22:14:37.317Z,102442.97
2022-10-16T22:19:36.102Z,102438.56
2022-10-16T22:24:35.012Z,102444.69
2022-10-16T22:29:35.221Z,102439.50
2022-10-16T22:34:33.921Z,102443.19
2022-10-16T22:39:32.772Z,102446.75
2022-10-16T22:44:31.695Z,102447.72
2022-10-16T22:49:31.872Z,102454.97
2022-10-16T22:54:32.365Z,102460.53
2022-10-16T22:59:31.229Z,102473.94
2022-10-16T23:04:33.112Z,102475.44
2022-10-16T23:09:32.062Z,102473.59
2022-10-16T23:14:30.858Z,102475.47
2022-10-16T23:19:31.208Z,102475.69
2022-10-16T23:24:31.824Z,102485.50
2022-10-16T23:29:30.771Z,102488.44
2022-10-16T23:34:29.617Z,102487.66
2022-10-16T23:39:29.873Z,102490.47
2022-10-16T23:44:28.636Z,102497.56
2022-10-16T23:49:27.410Z,102501.09
2022-10-16T23:54:26.186Z,102514.31
2022-10-16T23:59:26.389Z,102503.84
